createdAt,value
2019-03-05T00:01:22.687Z,1.20
2019-03-05T00:03:51.446Z,1.10
2019-03-05T00:06:20.106Z,1.07
2019-03-05T00:08:48.814Z,1.00
2019-03-05T00:11:17.475Z,0.90
2019-03-05T00:13:46.125Z,1.20
2019-03-05T00:16:14.804Z,0.93
2019-03-05T00:18:43.443Z,1.00
2019-03-05T00:21:12.137Z,0.93
2019-03-05T00:23:50.536Z,1.10
2019-03-05T00:26:20.841Z,0.70
2019-03-05T00:29:08.538Z,0.97
2019-03-05T00:31:37.747Z,0.70
2019-03-05T00:34:20.903Z,0.80
2019-03-05T00:37:03.816Z,0.93
2019-03-05T00:39:39.509Z,0.83
2019-03-05T00:42:27.298Z,0.80
2019-03-05T00:45:20.881Z,1.00
2019-03-05T00:47:58.696Z,0.80
2019-03-05T00:50:49.341Z,1.00
2019-03-05T00:53:43.014Z,0.80
2019-03-05T00:56:33.590Z,0.67
2019-03-05T00:59:08.764Z,0.80
2019-03-05T01:02:05.713Z,0.60
2019-03-05T01:04:56.141Z,0.90
2019-03-05T01:07:25.729Z,0.60
2019-03-05T01:09:54.410Z,1.10
2019-03-05T01:12:23.379Z,0.90
2019-03-05T01:14:52.501Z,0.80
2019-03-05T01:17:21.261Z,0.80
2019-03-05T01:19:49.925Z,0.93
2019-03-05T01:22:18.619Z,1.00
2019-03-05T01:24:47.319Z,0.93
2019-03-05T01:27:15.959Z,1.00
2019-03-05T01:29:44.583Z,0.80
2019-03-05T01:32:47.507Z,1.00
2019-03-05T01:35:33.707Z,0.90
2019-03-05T01:38:02.482Z,0.97
2019-03-05T01:40:36.946Z,1.10
2019-03-05T01:43:05.657Z,1.13
2019-03-05T01:45:34.222Z,1.00
2019-03-05T01:48:02.902Z,1.03
2019-03-05T01:50:31.534Z,1.20
2019-03-05T01:53:00.211Z,1.07
2019-03-05T01:55:28.955Z,1.10
2019-03-05T01:57:57.579Z,1.20
2019-03-05T02:00:26.250Z,1.20
2019-03-05T02:02:54.923Z,0.90
2019-03-05T02:05:23.611Z,0.93
2019-03-05T02:07:52.637Z,0.83
2019-03-05T02:10:21.985Z,1.20
2019-03-05T02:12:50.618Z,1.00
2019-03-05T02:15:19.331Z,1.10
2019-03-05T02:17:48.036Z,1.40
2019-03-05T02:20:17.929Z,0.90
2019-03-05T02:23:11.693Z,1.23
2019-03-05T02:25:48.649Z,1.20
2019-03-05T02:28:39.212Z,1.30
2019-03-05T02:31:25.346Z,1.20
2019-03-05T02:33:56.522Z,1.10
2019-03-05T02:36:44.365Z,1.50
2019-03-05T02:39:32.122Z,1.30
2019-03-05T02:42:22.698Z,1.10
2019-03-05T02:45:16.245Z,1.63
2019-03-05T02:48:06.373Z,1.63
2019-03-05T02:50:47.364Z,1.10
2019-03-05T02:53:23.814Z,1.27
2019-03-05T02:55:56.475Z,1.10
2019-03-05T02:58:24.414Z,1.67
2019-03-05T03:01:10.949Z,0.90
2019-03-05T03:03:43.250Z,1.10
2019-03-05T03:06:18.391Z,1.13
2019-03-05T03:08:47.088Z,1.60
2019-03-05T03:11:15.750Z,1.23
2019-03-05T03:13:44.500Z,1.30
2019-03-05T03:16:13.172Z,1.27
2019-03-05T03:18:41.850Z,1.30
2019-03-05T03:21:10.522Z,1.03
2019-03-05T03:23:39.106Z,1.30
2019-03-05T03:26:07.787Z,1.53
2019-03-05T03:28:36.446Z,0.93
2019-03-05T03:31:05.118Z,1.40
2019-03-05T03:33:33.806Z,1.83
2019-03-05T03:36:02.437Z,1.33
2019-03-05T03:38:31.014Z,1.20
2019-03-05T03:40:59.652Z,1.33
2019-03-05T03:43:28.295Z,1.30
2019-03-05T03:45:56.850Z,1.30
2019-03-05T03:48:25.568Z,1.10
2019-03-05T03:50:54.233Z,1.30
2019-03-05T03:53:22.912Z,1.47
2019-03-05T03:55:51.677Z,1.13
2019-03-05T03:58:20.436Z,1.00
2019-03-05T04:00:49.172Z,0.70
2019-03-05T04:03:17.862Z,1.03
2019-03-05T04:05:46.530Z,0.82
2019-03-05T04:08:15.223Z,1.30
2019-03-05T04:10:43.947Z,1.00
2019-03-05T04:13:12.710Z,1.20
2019-03-05T04:15:41.386Z,1.20
2019-03-05T04:18:10.033Z,0.70
2019-03-05T04:20:42.708Z,0.90
2019-03-05T04:23:11.391Z,1.00
2019-03-05T04:25:39.984Z,1.00
2019-03-05T04:28:08.654Z,0.90
2019-03-05T04:30:37.245Z,0.88
2019-03-05T04:33:05.844Z,1.07
2019-03-05T04:35:34.611Z,1.00
2019-03-05T04:38:03.337Z,1.00
2019-03-05T04:40:32.058Z,1.40
2019-03-05T04:43:00.630Z,0.93
2019-03-05T04:45:41.951Z,0.80
2019-03-05T04:48:10.634Z,1.02
2019-03-05T04:50:46.833Z,1.10
2019-03-05T04:53:15.529Z,1.20
2019-03-05T04:55:44.182Z,1.30
2019-03-05T04:58:12.889Z,1.10
2019-03-05T05:00:41.557Z,1.30
2019-03-05T05:03:10.253Z,1.40
2019-03-05T05:05:38.819Z,1.30
2019-03-05T05:08:07.680Z,1.57
2019-03-05T05:10:36.417Z,1.40
2019-03-05T05:13:05.117Z,1.60
2019-03-05T05:15:33.791Z,1.20
2019-03-05T05:18:02.578Z,1.43
2019-03-05T05:20:31.286Z,1.70
2019-03-05T05:22:59.947Z,2.07
2019-03-05T05:25:28.608Z,1.47
2019-03-05T05:27:57.282Z,1.20
2019-03-05T05:30:29.883Z,1.50
2019-03-05T05:32:58.601Z,1.65
2019-03-05T05:35:27.337Z,1.37
2019-03-05T05:37:56.096Z,1.40
2019-03-05T05:40:28.642Z,1.77
2019-03-05T05:42:57.461Z,1.53
2019-03-05T05:45:27.285Z,1.43
2019-03-05T05:47:55.930Z,1.77
2019-03-05T05:50:24.639Z,1.72
2019-03-05T05:52:53.342Z,1.80
2019-03-05T05:55:22.028Z,1.80
2019-03-05T05:57:50.713Z,1.32
2019-03-05T06:00:19.392Z,1.67
2019-03-05T06:02:48.170Z,1.60
2019-03-05T06:05:16.897Z,1.40
2019-03-05T06:07:45.595Z,1.77
2019-03-05T06:10:14.373Z,1.63
2019-03-05T06:12:43.016Z,2.00
2019-03-05T06:15:11.666Z,1.33
2019-03-05T06:17:40.423Z,1.33
2019-03-05T06:20:09.950Z,2.70
2019-03-05T06:22:38.625Z,1.93
2019-03-05T06:25:07.703Z,1.50
2019-03-05T06:27:36.422Z,1.60
2019-03-05T06:30:05.508Z,1.70
2019-03-05T06:32:34.200Z,1.40
2019-03-05T06:35:02.815Z,1.20
2019-03-05T06:37:33.040Z,1.70
2019-03-05T06:40:01.939Z,1.40
2019-03-05T06:42:30.633Z,1.57
2019-03-05T06:44:59.293Z,1.73
2019-03-05T06:47:28.309Z,1.80
2019-03-05T06:49:56.995Z,1.30
2019-03-05T06:52:25.678Z,1.70
2019-03-05T06:54:54.395Z,1.57
2019-03-05T06:57:23.075Z,1.80
2019-03-05T06:59:51.863Z,1.80
2019-03-05T07:02:20.549Z,1.37
2019-03-05T07:04:58.235Z,1.37
2019-03-05T07:07:30.320Z,1.20
2019-03-05T07:10:01.082Z,1.20
2019-03-05T07:12:34.804Z,1.50
2019-03-05T07:15:21.342Z,1.10
2019-03-05T07:17:52.141Z,1.20
2019-03-05T07:20:38.248Z,1.53
2019-03-05T07:23:28.934Z,1.60
2019-03-05T07:25:57.869Z,1.50
2019-03-05T07:28:26.591Z,1.20
2019-03-05T07:30:55.263Z,1.80
2019-03-05T07:33:23.877Z,1.60
2019-03-05T07:35:52.546Z,1.20
2019-03-05T07:38:21.281Z,1.47
2019-03-05T07:40:49.919Z,1.23
2019-03-05T07:43:18.617Z,1.00
2019-03-05T07:45:47.499Z,1.40
2019-03-05T07:48:16.165Z,0.90
2019-03-05T07:50:44.875Z,1.17
2019-03-05T07:53:13.581Z,1.20
2019-03-05T07:55:42.418Z,1.00
2019-03-05T07:58:11.093Z,1.10
2019-03-05T08:00:39.739Z,1.23
2019-03-05T08:03:08.400Z,1.10
2019-03-05T08:05:37.009Z,1.03
2019-03-05T08:08:26.831Z,1.00
2019-03-05T08:10:55.246Z,1.00
2019-03-05T08:13:29.632Z,1.00
2019-03-05T08:16:19.974Z,1.03
2019-03-05T08:18:48.657Z,0.90
2019-03-05T08:21:17.335Z,0.80
2019-03-05T08:23:48.381Z,0.80
2019-03-05T08:26:16.455Z,0.90
2019-03-05T08:28:45.116Z,0.93
2019-03-05T08:31:13.759Z,1.07
2019-03-05T08:33:42.413Z,1.03
2019-03-05T08:36:11.132Z,1.20
2019-03-05T08:38:39.780Z,1.03
2019-03-05T08:41:08.447Z,0.80
2019-03-05T08:43:37.037Z,0.83
2019-03-05T08:46:05.882Z,1.00
2019-03-05T08:48:34.585Z,1.00
2019-03-05T08:51:03.231Z,0.90
2019-03-05T08:53:31.956Z,0.70
2019-03-05T08:56:00.709Z,0.93
2019-03-05T08:58:29.379Z,1.10
2019-03-05T09:00:57.974Z,0.70
2019-03-05T09:03:26.653Z,1.33
2019-03-05T09:05:55.301Z,1.00
2019-03-05T09:08:23.978Z,1.20
2019-03-05T09:10:52.822Z,0.97
2019-03-05T09:13:31.984Z,1.00
2019-03-05T09:15:52.066Z,1.30
2019-03-05T09:18:20.730Z,0.90
2019-03-05T09:20:49.407Z,0.93
2019-03-05T09:23:18.107Z,1.00
2019-03-05T09:25:46.815Z,0.80
2019-03-05T09:28:15.543Z,1.07
2019-03-05T09:30:44.240Z,0.90
2019-03-05T09:33:12.847Z,0.90
2019-03-05T09:35:41.528Z,1.00
2019-03-05T09:38:10.238Z,1.10
2019-03-05T09:40:38.919Z,1.20
2019-03-05T09:43:07.669Z,1.10
2019-03-05T09:45:36.487Z,1.00
2019-03-05T09:48:05.245Z,1.00
2019-03-05T09:50:33.934Z,1.30
2019-03-05T09:53:02.625Z,0.87
2019-03-05T09:55:34.003Z,0.90
2019-03-05T09:58:08.043Z,0.90
2019-03-05T10:00:33.204Z,0.83
2019-03-05T10:03:02.092Z,1.17
2019-03-05T10:05:30.832Z,0.80
2019-03-05T10:07:59.536Z,0.90
2019-03-05T10:10:28.191Z,1.07
2019-03-05T10:12:58.922Z,0.93
2019-03-05T10:15:27.453Z,0.90
2019-03-05T10:17:56.198Z,1.20
2019-03-05T10:20:24.949Z,0.93
2019-03-05T10:22:53.617Z,0.90
2019-03-05T10:25:22.715Z,0.93
2019-03-05T10:27:51.485Z,0.90
2019-03-05T10:30:24.718Z,0.90
2019-03-05T10:32:51.296Z,0.80
2019-03-05T10:35:20.924Z,0.90
2019-03-05T10:37:49.592Z,0.83
2019-03-05T10:40:19.127Z,0.73
2019-03-05T10:42:48.045Z,0.70
2019-03-05T10:45:17.411Z,0.87
2019-03-05T10:47:46.348Z,0.80
2019-03-05T10:50:16.347Z,0.60
2019-03-05T10:52:45.084Z,0.90
2019-03-05T10:55:25.682Z,0.53
2019-03-05T10:57:44.738Z,0.60
2019-03-05T11:00:14.959Z,0.83
2019-03-05T11:02:44.701Z,0.73
2019-03-05T11:05:13.485Z,1.10
2019-03-05T11:07:44.481Z,0.73
2019-03-05T11:10:13.253Z,1.00
2019-03-05T11:12:41.948Z,1.30
2019-03-05T11:15:14.859Z,0.90
2019-03-05T11:17:43.519Z,1.30
2019-03-05T11:20:12.155Z,1.30
2019-03-05T11:22:41.083Z,0.87
2019-03-05T11:25:10.251Z,1.00
2019-03-05T11:27:38.973Z,0.90
2019-03-05T11:30:09.042Z,0.97
2019-03-05T11:32:37.827Z,1.03
2019-03-05T11:35:07.116Z,1.40
2019-03-05T11:37:35.828Z,1.07
2019-03-05T11:40:04.664Z,0.97
2019-03-05T11:42:33.375Z,1.03
2019-03-05T11:45:07.662Z,0.90
2019-03-05T11:47:32.475Z,0.80
2019-03-05T11:50:01.137Z,0.83
2019-03-05T11:52:29.811Z,1.07
2019-03-05T11:54:58.473Z,0.80
2019-03-05T11:57:27.173Z,1.20
2019-03-05T11:59:55.859Z,0.77
2019-03-05T12:02:24.550Z,0.70
2019-03-05T12:04:53.194Z,1.30
2019-03-05T12:07:21.863Z,0.70
2019-03-05T12:09:50.451Z,0.80
2019-03-05T12:12:19.087Z,1.13
2019-03-05T12:14:47.772Z,0.80
2019-03-05T12:17:16.445Z,1.03
2019-03-05T12:19:45.193Z,1.00
2019-03-05T12:22:13.833Z,0.80
2019-03-05T12:24:42.516Z,0.80
2019-03-05T12:27:11.077Z,0.80
2019-03-05T12:29:39.821Z,1.23
2019-03-05T12:32:08.523Z,0.87
2019-03-05T12:34:37.299Z,0.80
2019-03-05T12:37:05.990Z,1.00
2019-03-05T12:39:34.747Z,0.80
2019-03-05T12:42:03.744Z,0.80
2019-03-05T12:44:33.965Z,0.60
2019-03-05T12:47:02.737Z,0.80
2019-03-05T12:49:31.372Z,1.00
2019-03-05T12:52:00.185Z,0.80
2019-03-05T12:54:28.887Z,0.90
2019-03-05T12:56:57.602Z,1.20
2019-03-05T12:59:26.441Z,0.80
2019-03-05T13:01:55.133Z,0.80
2019-03-05T13:04:23.796Z,0.60
2019-03-05T13:06:52.453Z,0.83
2019-03-05T13:09:21.154Z,1.07
2019-03-05T13:11:50.911Z,1.00
2019-03-05T13:14:19.685Z,1.07
2019-03-05T13:16:48.342Z,1.30
2019-03-05T13:19:17.021Z,1.30
2019-03-05T13:21:48.506Z,0.83
2019-03-05T13:24:16.103Z,0.70
2019-03-05T13:26:46.290Z,1.13
2019-03-05T13:29:19.378Z,0.90
2019-03-05T13:31:45.415Z,0.90
2019-03-05T13:34:17.556Z,1.17
2019-03-05T13:36:46.891Z,1.00
2019-03-05T13:39:18.217Z,1.03
2019-03-05T13:41:50.430Z,1.27
2019-03-05T13:44:32.062Z,0.80
2019-03-05T13:47:01.014Z,0.83
2019-03-05T13:49:42.847Z,0.80
2019-03-05T13:52:24.689Z,0.80
2019-03-05T13:55:10.986Z,1.60
2019-03-05T13:57:57.257Z,0.67
2019-03-05T14:00:25.992Z,0.87
2019-03-05T14:02:58.492Z,0.70
2019-03-05T14:05:34.506Z,1.10
2019-03-05T14:08:21.112Z,0.67
2019-03-05T14:10:49.889Z,1.10
2019-03-05T14:13:18.688Z,0.90
2019-03-05T14:15:47.365Z,0.90
2019-03-05T14:18:16.165Z,0.90
2019-03-05T14:20:44.787Z,1.00
2019-03-05T14:23:13.533Z,1.03
2019-03-05T14:25:42.298Z,1.00
2019-03-05T14:28:11.192Z,0.70
2019-03-05T14:30:40.646Z,1.13
2019-03-05T14:33:09.419Z,1.20
2019-03-05T14:35:38.251Z,1.23
2019-03-05T14:38:06.939Z,0.80
2019-03-05T14:40:37.846Z,0.90
2019-03-05T14:43:06.329Z,1.40
2019-03-05T14:45:35.911Z,0.93
2019-03-05T14:48:04.911Z,1.40
2019-03-05T14:50:33.681Z,1.33
2019-03-05T14:53:02.363Z,0.90
2019-03-05T14:55:31.095Z,1.20
2019-03-05T14:57:59.852Z,1.50
2019-03-05T15:00:28.741Z,1.10
2019-03-05T15:02:57.531Z,1.00
2019-03-05T15:05:26.316Z,1.10
2019-03-05T15:07:54.981Z,0.97
2019-03-05T15:10:23.834Z,1.70
2019-03-05T15:12:52.545Z,1.20
2019-03-05T15:15:22.489Z,1.27
2019-03-05T15:17:51.267Z,1.40
2019-03-05T15:20:19.993Z,1.43
2019-03-05T15:22:48.778Z,1.30
2019-03-05T15:25:17.652Z,1.30
2019-03-05T15:27:46.401Z,1.67
2019-03-05T15:30:15.825Z,1.10
2019-03-05T15:32:44.649Z,1.20
2019-03-05T15:35:13.335Z,1.40
2019-03-05T15:37:42.121Z,1.20
2019-03-05T15:40:11.505Z,1.20
2019-03-05T15:42:40.241Z,1.10
2019-03-05T15:45:10.108Z,1.70
2019-03-05T15:47:42.471Z,1.20
2019-03-05T15:50:10.193Z,1.30
2019-03-05T15:52:38.988Z,1.40
2019-03-05T15:55:08.204Z,1.50
2019-03-05T15:57:37.141Z,1.60
2019-03-05T16:00:08.793Z,1.53
2019-03-05T16:02:37.672Z,1.47
2019-03-05T16:05:11.761Z,1.20
2019-03-05T16:07:36.821Z,1.57
2019-03-05T16:10:05.548Z,2.23
2019-03-05T16:12:34.304Z,1.40
2019-03-05T16:15:05.173Z,1.40
2019-03-05T16:17:33.387Z,1.20
2019-03-05T16:20:02.145Z,1.27
2019-03-05T16:22:30.903Z,1.30
2019-03-05T16:24:59.600Z,1.23
2019-03-05T16:27:29.943Z,1.57
2019-03-05T16:30:02.014Z,1.30
2019-03-05T16:33:00.004Z,1.20
2019-03-05T16:35:45.319Z,1.10
2019-03-05T16:38:31.636Z,1.07
2019-03-05T16:41:09.986Z,0.90
2019-03-05T16:43:57.382Z,1.47
2019-03-05T16:46:37.709Z,1.20
2019-03-05T16:49:18.379Z,1.10
2019-03-05T16:52:01.841Z,1.30
2019-03-05T16:54:39.881Z,1.10
2019-03-05T16:57:29.943Z,0.97
2019-03-05T17:00:29.754Z,1.27
2019-03-05T17:03:17.643Z,1.57
2019-03-05T17:06:05.395Z,1.17
2019-03-05T17:08:48.221Z,1.00
2019-03-05T17:11:29.447Z,1.00
2019-03-05T17:13:58.166Z,1.00
2019-03-05T17:16:26.969Z,0.90
2019-03-05T17:18:55.681Z,1.07
2019-03-05T17:21:27.803Z,1.00
2019-03-05T17:23:54.772Z,1.10
2019-03-05T17:26:23.446Z,1.40
2019-03-05T17:28:52.221Z,1.20
2019-03-05T17:31:20.900Z,1.00
2019-03-05T17:33:49.488Z,1.50
2019-03-05T17:36:18.158Z,1.33
2019-03-05T17:38:47.702Z,1.63
2019-03-05T17:41:16.370Z,1.60
2019-03-05T17:43:45.139Z,1.40
2019-03-05T17:46:13.861Z,1.90
2019-03-05T17:48:42.621Z,1.20
2019-03-05T17:51:11.425Z,1.50
2019-03-05T17:53:40.940Z,1.30
2019-03-05T17:56:09.748Z,1.43
2019-03-05T17:58:38.526Z,1.13
2019-03-05T18:01:08.124Z,1.00
2019-03-05T18:03:37.112Z,1.20
2019-03-05T18:06:06.040Z,1.30
2019-03-05T18:08:34.687Z,1.30
2019-03-05T18:11:03.419Z,1.30
2019-03-05T18:13:32.101Z,1.40
2019-03-05T18:16:00.970Z,1.73
2019-03-05T18:18:29.747Z,1.50
2019-03-05T18:20:58.476Z,2.47
2019-03-05T18:23:27.328Z,1.90
2019-03-05T18:25:56.100Z,1.80
2019-03-05T18:28:24.934Z,1.70
2019-03-05T18:30:53.591Z,1.90
2019-03-05T18:33:22.297Z,1.80
2019-03-05T18:35:51.086Z,1.90
2019-03-05T18:38:19.843Z,1.60
2019-03-05T18:40:48.861Z,1.90
2019-03-05T18:43:17.566Z,1.50
2019-03-05T18:45:46.278Z,1.80
2019-03-05T18:48:14.976Z,2.10
2019-03-05T18:50:43.719Z,1.70
2019-03-05T18:53:12.791Z,1.70
2019-03-05T18:55:41.618Z,2.07
2019-03-05T18:58:10.283Z,2.03
2019-03-05T19:00:38.974Z,2.00
2019-03-05T19:03:07.759Z,1.93
2019-03-05T19:05:36.651Z,1.70
2019-03-05T19:08:05.404Z,1.70
2019-03-05T19:10:34.231Z,2.20
2019-03-05T19:13:02.987Z,1.90
2019-03-05T19:15:31.750Z,1.70
2019-03-05T19:18:00.693Z,1.63
2019-03-05T19:20:29.420Z,2.07
2019-03-05T19:22:59.738Z,1.80
2019-03-05T19:25:28.804Z,1.80
2019-03-05T19:27:57.585Z,2.17
2019-03-05T19:30:27.679Z,1.70
2019-03-05T19:32:56.397Z,1.90
2019-03-05T19:35:25.097Z,1.70
2019-03-05T19:37:53.921Z,1.30
2019-03-05T19:40:23.640Z,1.50
2019-03-05T19:42:52.627Z,1.30
2019-03-05T19:45:21.407Z,1.37
2019-03-05T19:47:50.190Z,1.40
2019-03-05T19:50:18.962Z,1.40
2019-03-05T19:52:47.664Z,1.30
2019-03-05T19:55:17.202Z,1.43
2019-03-05T19:57:46.798Z,1.40
2019-03-05T20:00:32.468Z,1.53
2019-03-05T20:03:01.218Z,1.50
2019-03-05T20:05:29.924Z,1.30
2019-03-05T20:07:58.645Z,1.13
2019-03-05T20:10:27.541Z,1.10
2019-03-05T20:12:56.370Z,1.40
2019-03-05T20:15:25.091Z,1.33
2019-03-05T20:17:58.901Z,1.20
2019-03-05T20:20:24.347Z,1.50
2019-03-05T20:22:53.211Z,1.43
2019-03-05T20:25:22.026Z,1.43
2019-03-05T20:27:53.783Z,1.40
2019-03-05T20:30:22.698Z,1.60
2019-03-05T20:32:51.454Z,1.67
2019-03-05T20:35:20.218Z,1.60
2019-03-05T20:37:48.962Z,1.50
2019-03-05T20:40:18.154Z,1.50
2019-03-05T20:42:46.817Z,1.60
2019-03-05T20:45:17.069Z,1.50
2019-03-05T20:47:45.769Z,1.70
2019-03-05T20:50:14.634Z,1.30
2019-03-05T20:52:44.941Z,1.37
2019-03-05T20:55:14.574Z,1.80
2019-03-05T20:57:43.346Z,1.70
2019-03-05T21:00:18.755Z,1.80
2019-03-05T21:02:47.717Z,1.97
2019-03-05T21:05:16.823Z,2.13
2019-03-05T21:07:45.562Z,1.50
2019-03-05T21:10:14.488Z,1.53
2019-03-05T21:12:43.279Z,1.70
2019-03-05T21:15:12.008Z,1.60
2019-03-05T21:17:40.875Z,1.80
2019-03-05T21:20:10.038Z,1.80
2019-03-05T21:22:38.778Z,1.80
2019-03-05T21:25:08.254Z,1.70
2019-03-05T21:27:36.996Z,2.00
2019-03-05T21:30:06.410Z,1.87
2019-03-05T21:32:35.092Z,2.00
2019-03-05T21:35:04.099Z,1.93
2019-03-05T21:37:32.761Z,1.60
2019-03-05T21:40:01.464Z,1.80
2019-03-05T21:42:30.157Z,1.70
2019-03-05T21:44:58.936Z,1.70
2019-03-05T21:47:27.708Z,1.77
2019-03-05T21:49:56.441Z,1.63
2019-03-05T21:52:25.143Z,1.60
2019-03-05T21:54:53.833Z,1.50
2019-03-05T21:57:22.543Z,1.40
2019-03-05T21:59:51.251Z,1.33
2019-03-05T22:02:22.260Z,1.53
2019-03-05T22:04:50.582Z,1.47
2019-03-05T22:07:19.319Z,1.40
2019-03-05T22:09:48.029Z,1.63
2019-03-05T22:12:16.681Z,1.87
2019-03-05T22:14:45.450Z,1.50
2019-03-05T22:17:14.257Z,1.50
2019-03-05T22:19:43.114Z,1.47
2019-03-05T22:22:11.872Z,1.50
2019-03-05T22:24:40.626Z,1.30
2019-03-05T22:27:09.315Z,1.40
2019-03-05T22:29:38.025Z,1.30
2019-03-05T22:32:06.714Z,1.30
2019-03-05T22:34:35.479Z,1.30
2019-03-05T22:37:04.258Z,1.40
2019-03-05T22:39:33.043Z,1.23
2019-03-05T22:42:01.800Z,1.27
2019-03-05T22:44:30.579Z,1.20
2019-03-05T22:46:59.284Z,1.40
2019-03-05T22:49:27.937Z,1.43
2019-03-05T22:51:56.613Z,1.10
2019-03-05T22:54:25.396Z,1.50
2019-03-05T22:56:55.356Z,1.17
2019-03-05T22:59:24.101Z,1.20
2019-03-05T23:01:52.759Z,1.17
2019-03-05T23:04:27.873Z,1.03
2019-03-05T23:06:56.731Z,1.30
2019-03-05T23:09:26.153Z,1.20
2019-03-05T23:11:54.882Z,1.10
2019-03-05T23:14:23.576Z,1.17
2019-03-05T23:16:52.800Z,0.93
2019-03-05T23:19:21.693Z,1.00
2019-03-05T23:21:50.342Z,1.10
2019-03-05T23:24:19.013Z,1.00
2019-03-05T23:26:47.701Z,1.00
2019-03-05T23:29:16.763Z,1.33
2019-03-05T23:31:45.635Z,1.27
2019-03-05T23:34:18.219Z,1.07
2019-03-05T23:36:44.753Z,1.20
2019-03-05T23:39:16.286Z,1.00
2019-03-05T23:41:44.980Z,1.00
2019-03-05T23:44:13.729Z,1.20
2019-03-05T23:46:42.502Z,1.10
2019-03-05T23:49:11.174Z,1.20
2019-03-05T23:51:39.902Z,0.97
2019-03-05T23:54:08.630Z,1.10
2019-03-05T23:56:37.905Z,1.10
2019-03-05T23:59:06.673Z,1.10
